K40 weather

Anvik Seaplane Base
Anvik, Alaska, United States

Public forecast

Using degrees Fahrenheit for public forecast. Weather courtesy of forecast.io.

Closest aviation weather report (METAR) to Anvik Seaplane Base

Closest report is Anvik Airport, 0.7 nm (1.3 km) SE. Retrieved 2020/05/26 19:56 UTC (12 minutes ago):

PANV 261956Z AUTO VRB06KT 10SM CLR 11/03 A2997 RMK AO2 SLP218 T01110028 TSNO

Closest aviation forecast (TAF) to Anvik Seaplane Base

Closest forecast is Unalakleet Airport, 75.7 nm (140.2 km) NNW. Retrieved 2020/05/26 18:36 UTC (2 hours ago):

TAF PAUN 261733Z 2618/2718 05009KT P6SM -SHRA OVC050 FM270400 29009KT P6SM VCSH BKN080